Time;durP1;ratioP1;P1;durP2;ratioP2;P2;SDS_P1;SDS_P2;PMS_P1;PMS_P2;Temp;Humidity;BMP_temperature;BMP_pressure;BME280_temperature;BME280_humidity;BME280_pressure;Samples;Min_cycle;Max_cycle;Signal;HPM_P1;HPM_P2
2023/08/02 00:00:47;;;;;;;9.10;5.03;;;24.40;73.70;;;;;;5081361;28;20542;-75
2023/08/02 00:03:14;;;;;;;9.50;4.87;;;24.30;73.60;;;;;;5075722;28;20217;-76
2023/08/02 00:06:17;;;;;;;8.47;5.13;;;24.30;73.60;;;;;;5080719;28;20259;-75
2023/08/02 00:08:47;;;;;;;9.40;4.67;;;24.30;73.70;;;;;;5058006;28;20227;-75
2023/08/02 00:11:18;;;;;;;10.77;5.33;;;24.30;74.00;;;;;;5061216;28;20209;-76
2023/08/02 00:13:54;;;;;;;8.40;5.07;;;24.30;75.20;;;;;;5076783;28;20212;-76
2023/08/02 00:16:21;;;;;;;6.87;4.60;;;24.30;76.30;;;;;;5089673;28;20220;-76
2023/08/02 00:18:48;;;;;;;6.23;4.70;;;24.30;77.60;;;;;;5084869;28;20226;-76
2023/08/02 00:21:16;;;;;;;9.27;5.47;;;24.40;79.60;;;;;;5061857;28;20293;-76
2023/08/02 00:23:45;;;;;;;6.23;4.73;;;24.40;80.80;;;;;;5076831;28;20670;-76
2023/08/02 00:26:12;;;;;;;9.07;5.67;;;24.40;81.60;;;;;;5056201;28;20622;-77
2023/08/02 00:28:39;;;;;;;8.13;4.77;;;24.40;82.20;;;;;;5076564;28;20637;-76
2023/08/02 00:31:06;;;;;;;10.03;5.00;;;24.50;82.90;;;;;;5057578;28;20209;-77
2023/08/02 00:33:34;;;;;;;8.43;4.87;;;24.50;83.80;;;;;;5082783;28;20207;-76
2023/08/02 00:36:05;;;;;;;7.07;4.30;;;24.50;84.90;;;;;;5071017;28;20221;-76
2023/08/02 00:38:32;;;;;;;7.47;4.47;;;24.50;85.90;;;;;;5071480;28;20199;-76
2023/08/02 00:41:10;;;;;;;7.33;4.30;;;24.50;86.30;;;;;;5057591;28;20259;-77
2023/08/02 00:43:47;;;;;;;15.60;5.70;;;24.50;87.30;;;;;;5075853;28;20298;-76
2023/08/02 00:46:20;;;;;;;6.63;5.77;;;24.50;88.00;;;;;;5085715;28;20711;-76
2023/08/02 00:48:47;;;;;;;7.37;5.60;;;24.50;89.10;;;;;;5064350;28;20237;-76
2023/08/02 00:51:19;;;;;;;6.67;5.40;;;24.50;90.00;;;;;;5075542;28;20210;-76
2023/08/02 00:53:49;;;;;;;6.83;5.90;;;24.50;90.30;;;;;;5057969;28;20220;-76
2023/08/02 00:56:17;;;;;;;8.17;6.07;;;24.50;90.70;;;;;;5055129;28;20265;-76
2023/08/02 00:58:45;;;;;;;6.17;5.67;;;24.40;90.80;;;;;;5067590;28;20296;-76
2023/08/02 01:01:13;;;;;;;7.10;6.37;;;24.40;91.00;;;;;;5048503;28;20281;-76
2023/08/02 01:03:44;;;;;;;9.80;6.80;;;24.30;91.10;;;;;;5076288;28;20205;-77
2023/08/02 01:06:14;;;;;;;7.67;6.73;;;24.30;91.30;;;;;;5065146;28;20600;-76
2023/08/02 01:08:47;;;;;;;8.10;6.50;;;24.20;91.50;;;;;;5068933;28;20205;-76
2023/08/02 01:11:31;;;;;;;8.30;6.30;;;24.20;91.60;;;;;;5074115;28;20213;-75
2023/08/02 01:14:01;;;;;;;8.13;6.57;;;24.10;91.70;;;;;;5089407;28;20197;-76
2023/08/02 01:16:29;;;;;;;8.10;7.17;;;24.10;91.70;;;;;;5070738;28;20661;-78
2023/08/02 01:19:08;;;;;;;11.63;7.17;;;24.10;91.80;;;;;;5062132;28;20227;-75
2023/08/02 01:21:38;;;;;;;8.30;7.03;;;24.10;91.90;;;;;;5074544;28;20591;-76
2023/08/02 01:24:11;;;;;;;9.40;6.73;;;24.00;92.00;;;;;;5061990;28;20259;-76
2023/08/02 01:26:43;;;;;;;7.27;6.43;;;24.00;92.10;;;;;;5066915;28;20233;-75
2023/08/02 01:29:17;;;;;;;8.37;5.77;;;23.90;92.20;;;;;;5066170;28;20225;-75
2023/08/02 01:31:49;;;;;;;7.03;6.03;;;24.00;92.40;;;;;;5057438;28;20201;-76
2023/08/02 01:34:21;;;;;;;9.83;6.33;;;23.90;92.30;;;;;;5052871;28;20374;-76
2023/08/02 01:36:48;;;;;;;7.10;6.13;;;23.90;92.50;;;;;;5069384;28;20236;-76
2023/08/02 01:39:16;;;;;;;7.87;6.47;;;23.90;92.50;;;;;;5071227;28;20204;-76
2023/08/02 01:41:44;;;;;;;6.87;6.17;;;23.80;92.50;;;;;;5051993;28;20198;-76
2023/08/02 01:44:12;;;;;;;7.60;5.97;;;23.80;92.60;;;;;;5048208;28;20200;-76
2023/08/02 01:46:40;;;;;;;5.93;5.43;;;23.80;92.70;;;;;;5068649;28;20254;-76
2023/08/02 01:49:08;;;;;;;6.83;6.03;;;23.80;92.70;;;;;;5070347;28;20205;-76
2023/08/02 01:51:35;;;;;;;6.87;5.07;;;23.70;92.80;;;;;;5070904;28;20621;-76
2023/08/02 01:54:10;;;;;;;6.10;5.50;;;23.70;92.80;;;;;;5068565;28;20197;-75
2023/08/02 01:56:41;;;;;;;8.13;5.53;;;23.70;92.90;;;;;;5058817;28;20687;-75
2023/08/02 01:59:11;;;;;;;6.57;5.63;;;23.70;92.90;;;;;;5059352;28;20210;-77
2023/08/02 02:01:39;;;;;;;5.30;4.83;;;23.70;92.90;;;;;;5056676;28;20207;-75
2023/08/02 02:04:07;;;;;;;5.27;4.70;;;23.60;92.90;;;;;;5054330;28;20203;-76
2023/08/02 02:06:37;;;;;;;6.37;4.63;;;23.60;93.00;;;;;;5090582;28;20221;-76
2023/08/02 02:09:05;;;;;;;5.93;4.77;;;23.60;93.00;;;;;;5065683;28;20571;-76
2023/08/02 02:11:32;;;;;;;5.83;4.93;;;23.50;93.00;;;;;;5058241;28;20204;-76
2023/08/02 02:14:03;;;;;;;7.30;5.17;;;23.50;93.10;;;;;;5081079;28;20255;-76
2023/08/02 02:16:32;;;;;;;4.70;4.20;;;23.40;93.10;;;;;;5048478;28;20238;-76
2023/08/02 02:19:00;;;;;;;6.57;4.27;;;23.50;93.20;;;;;;5053011;28;20207;-76
2023/08/02 02:21:27;;;;;;;4.90;4.23;;;23.40;93.20;;;;;;5076537;28;20209;-76
2023/08/02 02:23:55;;;;;;;5.87;5.00;;;23.30;93.30;;;;;;5053564;28;20281;-75
2023/08/02 02:26:28;;;;;;;4.97;4.47;;;23.30;93.30;;;;;;5064610;28;20711;-76
2023/08/02 02:29:01;;;;;;;10.57;5.37;;;23.30;93.50;;;;;;5075297;28;20249;-76
2023/08/02 02:31:28;;;;;;;7.73;4.80;;;23.20;93.60;;;;;;5073431;28;20211;-76
2023/08/02 02:33:58;;;;;;;6.67;5.07;;;23.20;93.70;;;;;;5049718;28;20288;-76
2023/08/02 02:36:28;;;;;;;9.30;4.63;;;23.20;93.80;;;;;;5090803;28;20212;-76
2023/08/02 02:39:01;;;;;;;8.00;5.33;;;23.10;93.90;;;;;;5067444;28;20291;-76
2023/08/02 02:41:29;;;;;;;7.63;4.80;;;23.10;94.20;;;;;;5055127;28;20660;-76
2023/08/02 02:43:56;;;;;;;8.37;4.60;;;23.10;94.30;;;;;;5073317;28;20197;-75
2023/08/02 02:46:26;;;;;;;7.27;4.73;;;23.00;94.50;;;;;;5066917;28;20276;-76
2023/08/02 02:48:53;;;;;;;6.37;4.03;;;23.00;94.50;;;;;;5071524;28;20288;-76
2023/08/02 02:51:20;;;;;;;5.63;4.80;;;23.00;94.60;;;;;;5065360;28;20292;-75
2023/08/02 02:53:47;;;;;;;7.90;4.53;;;23.00;94.70;;;;;;5076017;28;20280;-75
2023/08/02 02:56:17;;;;;;;7.10;5.50;;;22.90;94.80;;;;;;5076462;28;20263;-76
2023/08/02 02:58:48;;;;;;;5.57;4.83;;;22.90;94.80;;;;;;5049934;28;20241;-76
2023/08/02 03:01:21;;;;;;;7.20;4.30;;;22.80;94.90;;;;;;5066401;28;20225;-76
2023/08/02 03:03:48;;;;;;;7.27;4.57;;;22.80;95.00;;;;;;5069873;28;20255;-76
2023/08/02 03:06:16;;;;;;;5.83;4.70;;;22.70;95.10;;;;;;5066307;28;20240;-75
2023/08/02 03:08:43;;;;;;;6.27;4.23;;;22.70;95.10;;;;;;5057384;28;20197;-76
2023/08/02 03:11:10;;;;;;;5.53;3.63;;;22.70;95.20;;;;;;5067760;28;20205;-75
2023/08/02 03:13:38;;;;;;;6.37;4.40;;;22.70;95.20;;;;;;5064280;28;20216;-76
2023/08/02 03:16:05;;;;;;;10.00;5.50;;;22.70;95.20;;;;;;5081023;28;20209;-75
2023/08/02 03:18:33;;;;;;;7.30;4.60;;;22.70;95.20;;;;;;5070944;28;20217;-76
2023/08/02 03:21:03;;;;;;;7.70;4.07;;;22.70;95.20;;;;;;5065963;28;20228;-76
2023/08/02 03:23:34;;;;;;;4.03;3.27;;;22.70;95.20;;;;;;5068776;28;20202;-76
2023/08/02 03:26:05;;;;;;;8.97;3.37;;;22.70;95.20;;;;;;5071343;28;20208;-75
2023/08/02 03:28:32;;;;;;;4.70;3.37;;;22.70;95.10;;;;;;5083747;28;20206;-76
2023/08/02 03:30:59;;;;;;;4.73;3.23;;;22.70;95.10;;;;;;5070267;28;20211;-76
2023/08/02 03:33:29;;;;;;;7.53;3.33;;;22.70;95.00;;;;;;5074038;28;20609;-75
2023/08/02 03:35:59;;;;;;;3.47;2.70;;;22.70;94.90;;;;;;5051143;28;20685;-75
2023/08/02 03:38:29;;;;;;;3.37;3.07;;;22.70;94.90;;;;;;5072122;28;20213;-76
2023/08/02 03:40:57;;;;;;;3.37;2.53;;;22.70;94.80;;;;;;5066468;28;20210;-76
2023/08/02 03:43:25;;;;;;;6.33;2.73;;;22.70;94.80;;;;;;5073742;28;20551;-75
2023/08/02 03:45:52;;;;;;;3.40;2.37;;;22.70;94.70;;;;;;5073529;28;20205;-75
2023/08/02 03:48:20;;;;;;;5.13;3.00;;;22.70;94.60;;;;;;5072570;28;20221;-76
2023/08/02 03:50:49;;;;;;;5.40;2.37;;;22.60;94.40;;;;;;5068652;28;20216;-76
2023/08/02 03:53:17;;;;;;;4.53;3.10;;;22.60;94.30;;;;;;5054101;28;20210;-76
2023/08/02 03:55:45;;;;;;;3.40;2.20;;;22.60;94.30;;;;;;5075402;28;20234;-76
2023/08/02 03:58:15;;;;;;;3.97;2.20;;;22.60;94.20;;;;;;5091945;28;20213;-75
2023/08/02 04:00:42;;;;;;;3.33;1.80;;;22.60;94.10;;;;;;5055278;28;20202;-76
2023/08/02 04:03:10;;;;;;;4.50;2.40;;;22.50;93.90;;;;;;5065332;28;20254;-76
2023/08/02 04:05:38;;;;;;;3.20;1.77;;;22.50;93.70;;;;;;5069259;28;20296;-77
2023/08/02 04:08:05;;;;;;;1.53;1.43;;;22.50;93.70;;;;;;5068539;28;20681;-76
2023/08/02 04:10:42;;;;;;;3.07;1.70;;;22.40;93.60;;;;;;5064788;28;20629;-75
2023/08/02 04:13:12;;;;;;;2.70;2.10;;;22.40;93.30;;;;;;5059305;28;20625;-76
2023/08/02 04:15:41;;;;;;;3.73;2.13;;;22.40;93.10;;;;;;5054948;28;20219;-76
2023/08/02 04:18:08;;;;;;;7.90;1.90;;;22.40;93.00;;;;;;5064093;28;20304;-76
2023/08/02 04:20:39;;;;;;;5.23;1.70;;;22.30;93.10;;;;;;5050837;28;20210;-75
2023/08/02 04:23:12;;;;;;;2.27;1.70;;;22.30;92.80;;;;;;5064612;28;20244;-75
2023/08/02 04:25:39;;;;;;;2.43;1.73;;;22.30;92.80;;;;;;5074213;28;20224;-76
2023/08/02 04:28:07;;;;;;;4.43;1.77;;;22.30;92.70;;;;;;5074600;28;20208;-76
2023/08/02 04:30:34;;;;;;;1.80;1.27;;;22.30;92.70;;;;;;5069314;28;20198;-77
2023/08/02 04:33:01;;;;;;;4.10;1.90;;;22.30;92.70;;;;;;5069081;28;20375;-76
2023/08/02 04:35:29;;;;;;;2.53;1.60;;;22.30;92.50;;;;;;5067984;28;20537;-76
2023/08/02 04:37:57;;;;;;;5.07;1.63;;;22.30;92.50;;;;;;5078885;28;20217;-76
2023/08/02 04:40:27;;;;;;;2.57;1.70;;;22.30;92.40;;;;;;5071929;28;20198;-76
2023/08/02 04:42:55;;;;;;;2.27;1.73;;;22.30;92.30;;;;;;5084607;28;20212;-75
2023/08/02 04:45:22;;;;;;;4.10;1.67;;;22.30;92.20;;;;;;5083024;28;20216;-77
2023/08/02 04:47:54;;;;;;;6.80;1.50;;;22.30;92.10;;;;;;5067553;28;20256;-75
2023/08/02 04:50:26;;;;;;;1.37;1.27;;;22.30;92.00;;;;;;5073110;28;20197;-76
2023/08/02 04:52:53;;;;;;;2.93;1.23;;;22.40;91.90;;;;;;5072315;28;20201;-77
2023/08/02 04:55:29;;;;;;;2.60;1.40;;;22.40;91.70;;;;;;5072219;28;20237;-75
2023/08/02 04:57:57;;;;;;;2.07;1.70;;;22.50;91.60;;;;;;5054444;28;20664;-76
2023/08/02 05:00:25;;;;;;;2.70;1.73;;;22.50;91.50;;;;;;5084800;28;20234;-77
2023/08/02 05:02:52;;;;;;;1.43;1.30;;;22.60;91.30;;;;;;5069619;28;20193;-76
2023/08/02 05:05:20;;;;;;;1.40;1.27;;;22.60;91.20;;;;;;5063178;28;20228;-76
2023/08/02 05:07:47;;;;;;;3.97;1.63;;;22.70;91.20;;;;;;5078262;28;20240;-76
2023/08/02 05:10:15;;;;;;;1.50;1.40;;;22.70;91.10;;;;;;5081933;28;20206;-76
2023/08/02 05:12:42;;;;;;;3.27;1.60;;;22.80;90.70;;;;;;5064063;28;20221;-75
2023/08/02 05:15:10;;;;;;;3.67;2.10;;;22.80;90.60;;;;;;5070708;28;20231;-76
2023/08/02 05:17:37;;;;;;;5.33;2.80;;;22.80;90.50;;;;;;5055857;28;20225;-76
2023/08/02 05:20:09;;;;;;;7.60;4.43;;;22.80;90.50;;;;;;5060694;28;20205;-77
2023/08/02 05:22:37;;;;;;;10.37;5.20;;;22.90;90.50;;;;;;5069030;28;20197;-76
2023/08/02 05:25:06;;;;;;;7.00;3.90;;;22.90;90.40;;;;;;5057458;28;20225;-76
2023/08/02 05:27:35;;;;;;;7.00;3.20;;;22.90;90.40;;;;;;5076427;28;20283;-76
2023/08/02 05:30:02;;;;;;;3.83;2.20;;;23.00;90.20;;;;;;5089179;28;20222;-75
2023/08/02 05:32:31;;;;;;;4.67;2.30;;;23.00;90.20;;;;;;5067668;28;20198;-76
2023/08/02 05:34:58;;;;;;;7.07;1.47;;;23.10;90.20;;;;;;5071291;28;20220;-76
2023/08/02 05:37:28;;;;;;;3.00;1.50;;;23.10;90.10;;;;;;5070672;28;20676;-75
2023/08/02 05:39:59;;;;;;;5.37;1.37;;;23.20;90.10;;;;;;5066201;28;20190;-76
2023/08/02 05:42:31;;;;;;;2.53;1.43;;;23.20;89.70;;;;;;5055723;28;20212;-76
2023/08/02 05:44:58;;;;;;;7.53;1.57;;;23.30;90.00;;;;;;5057710;28;20224;-76
2023/08/02 05:47:27;;;;;;;1.83;1.37;;;23.30;89.40;;;;;;5077683;28;20289;-76
2023/08/02 05:49:55;;;;;;;2.13;1.43;;;23.40;89.30;;;;;;5065953;28;20206;-76
2023/08/02 05:52:23;;;;;;;3.33;1.63;;;23.50;89.30;;;;;;5054997;28;20713;-76
2023/08/02 05:54:52;;;;;;;3.00;1.80;;;23.60;89.20;;;;;;5079424;28;20255;-76
2023/08/02 05:57:20;;;;;;;6.47;1.53;;;23.70;88.80;;;;;;5057188;28;20635;-76
2023/08/02 05:59:52;;;;;;;7.17;1.50;;;23.80;88.60;;;;;;5055887;28;20201;-75
2023/08/02 06:02:19;;;;;;;1.80;1.23;;;23.90;88.70;;;;;;5064771;28;20274;-76
2023/08/02 06:04:52;;;;;;;4.77;1.40;;;24.00;88.70;;;;;;5066902;28;20202;-76
2023/08/02 06:07:22;;;;;;;9.27;1.80;;;24.20;88.70;;;;;;5063269;28;20308;-76
2023/08/02 06:09:50;;;;;;;6.00;1.50;;;24.40;87.60;;;;;;5069256;28;20193;-75
2023/08/02 06:12:17;;;;;;;5.90;2.43;;;24.50;86.80;;;;;;5047062;28;20205;-75
2023/08/02 06:14:47;;;;;;;4.70;1.70;;;24.50;86.50;;;;;;5069813;28;20252;-76
2023/08/02 06:17:15;;;;;;;6.63;1.87;;;24.50;86.30;;;;;;5058652;28;20233;-76
2023/08/02 06:19:42;;;;;;;2.87;1.57;;;24.60;86.30;;;;;;5063472;28;20292;-76
2023/08/02 06:22:13;;;;;;;4.63;1.40;;;24.70;86.00;;;;;;5062474;28;20293;-75
2023/08/02 06:24:43;;;;;;;4.67;1.70;;;24.80;85.90;;;;;;5075932;28;20209;-75
2023/08/02 06:27:11;;;;;;;4.60;1.80;;;24.80;85.50;;;;;;5078264;28;20199;-76
2023/08/02 06:29:39;;;;;;;8.63;2.33;;;24.80;85.50;;;;;;5073762;28;20205;-75
2023/08/02 06:32:09;;;;;;;6.40;1.87;;;24.90;85.70;;;;;;5050840;28;20279;-78
2023/08/02 06:34:38;;;;;;;3.80;1.30;;;25.00;86.10;;;;;;5067092;28;20203;-76
2023/08/02 06:37:08;;;;;;;3.93;1.57;;;25.10;85.70;;;;;;5058411;28;20203;-76
2023/08/02 06:39:38;;;;;;;6.47;1.80;;;25.30;85.20;;;;;;5047561;28;20224;-76
2023/08/02 06:42:09;;;;;;;3.27;1.83;;;25.40;84.90;;;;;;5068636;28;20232;-76
2023/08/02 06:44:37;;;;;;;7.07;1.80;;;25.50;84.30;;;;;;5081760;28;20287;-75
2023/08/02 06:47:04;;;;;;;9.10;1.50;;;25.60;83.60;;;;;;5072140;28;20207;-76
2023/08/02 06:49:35;;;;;;;5.37;1.60;;;25.80;83.80;;;;;;5071894;28;20204;-76
2023/08/02 06:52:03;;;;;;;4.03;1.70;;;25.90;82.80;;;;;;5065228;28;20308;-76
2023/08/02 06:54:30;;;;;;;3.73;1.80;;;26.00;82.30;;;;;;5050373;28;20217;-76
2023/08/02 06:57:01;;;;;;;3.23;1.60;;;26.10;82.30;;;;;;5058317;28;20216;-76
2023/08/02 06:59:31;;;;;;;5.33;1.67;;;26.20;82.30;;;;;;5054523;28;20233;-76
2023/08/02 07:01:58;;;;;;;2.27;1.27;;;26.30;81.70;;;;;;5076263;28;20202;-75
2023/08/02 07:04:26;;;;;;;4.23;1.93;;;26.40;82.20;;;;;;5052964;28;20675;-76
2023/08/02 07:06:56;;;;;;;6.27;1.50;;;26.50;82.10;;;;;;5050137;28;20229;-76
2023/08/02 07:09:23;;;;;;;8.53;1.90;;;26.60;80.70;;;;;;5089606;28;20213;-76
2023/08/02 07:11:53;;;;;;;5.43;1.63;;;26.70;80.50;;;;;;5059126;28;20213;-76
2023/08/02 07:14:21;;;;;;;4.73;1.60;;;26.80;80.40;;;;;;5052671;28;20201;-76
2023/08/02 07:16:48;;;;;;;4.83;1.60;;;26.90;80.30;;;;;;5084667;28;20562;-76
2023/08/02 07:19:19;;;;;;;2.60;1.80;;;27.00;80.40;;;;;;5075971;28;20609;-76
2023/08/02 07:21:46;;;;;;;7.87;1.50;;;27.30;80.00;;;;;;5076161;28;20213;-77
2023/08/02 07:24:13;;;;;;;6.33;1.80;;;27.50;79.10;;;;;;5059349;28;20518;-76
2023/08/02 07:26:41;;;;;;;3.67;1.40;;;27.60;78.90;;;;;;5059761;28;20631;-76
2023/08/02 07:29:08;;;;;;;4.13;1.73;;;27.80;78.50;;;;;;5057207;28;20581;-77
2023/08/02 07:31:38;;;;;;;3.47;1.67;;;28.00;77.80;;;;;;5066760;28;20540;-76
2023/08/02 07:34:05;;;;;;;4.93;1.53;;;28.10;77.30;;;;;;5075685;28;20201;-77
2023/08/02 07:36:32;;;;;;;4.63;1.90;;;28.20;76.90;;;;;;5074647;28;20229;-76
2023/08/02 07:39:00;;;;;;;4.97;1.50;;;28.20;76.10;;;;;;5058725;28;20598;-76
2023/08/02 07:41:28;;;;;;;4.93;2.00;;;28.20;76.30;;;;;;5065375;28;20285;-76
2023/08/02 07:43:55;;;;;;;7.77;2.10;;;28.20;76.70;;;;;;5073776;28;20201;-76
2023/08/02 07:46:23;;;;;;;4.07;2.30;;;28.20;75.90;;;;;;5066628;28;20255;-76
2023/08/02 07:48:51;;;;;;;8.63;2.03;;;28.20;76.20;;;;;;5071625;28;20627;-76
2023/08/02 07:51:22;;;;;;;4.27;2.03;;;28.20;76.40;;;;;;5091475;28;20212;-76
2023/08/02 07:53:50;;;;;;;5.60;1.70;;;28.30;76.20;;;;;;5070581;28;20705;-76
2023/08/02 07:56:17;;;;;;;5.43;1.70;;;28.40;75.80;;;;;;5052354;28;20248;-76
2023/08/02 07:58:44;;;;;;;4.10;2.03;;;28.40;75.60;;;;;;5068458;28;20305;-76
2023/08/02 08:01:15;;;;;;;6.73;1.90;;;28.50;75.20;;;;;;5075341;28;20536;-76
2023/08/02 08:03:43;;;;;;;4.87;1.80;;;28.50;75.30;;;;;;5056221;28;20208;-76
2023/08/02 08:06:11;;;;;;;3.90;1.60;;;28.60;75.20;;;;;;5080661;28;20502;-76
2023/08/02 08:08:43;;;;;;;8.80;1.80;;;28.60;74.90;;;;;;5054846;28;20660;-77
2023/08/02 08:11:13;;;;;;;4.83;1.90;;;28.70;74.80;;;;;;5054806;28;20233;-77
2023/08/02 08:13:40;;;;;;;3.90;1.67;;;28.80;74.30;;;;;;5067034;28;20197;-76
2023/08/02 08:16:08;;;;;;;5.37;1.97;;;28.80;74.20;;;;;;5057084;28;20214;-77
2023/08/02 08:18:36;;;;;;;4.17;1.57;;;28.90;74.30;;;;;;5072034;28;20210;-76
2023/08/02 08:21:04;;;;;;;2.93;1.60;;;29.00;73.90;;;;;;5067773;28;20202;-76
2023/08/02 08:23:35;;;;;;;4.93;2.07;;;29.10;73.70;;;;;;5063503;28;20708;-77
2023/08/02 08:26:02;;;;;;;4.20;1.73;;;29.20;73.10;;;;;;5075778;28;20240;-76
2023/08/02 08:28:30;;;;;;;3.53;1.70;;;29.30;73.30;;;;;;5080539;28;20622;-76
2023/08/02 08:30:59;;;;;;;4.93;2.77;;;29.40;73.00;;;;;;5091591;28;20643;-77
2023/08/02 08:33:28;;;;;;;7.17;1.90;;;29.50;72.10;;;;;;5067775;28;20273;-77
2023/08/02 08:35:57;;;;;;;6.27;2.00;;;29.50;71.70;;;;;;5063669;28;20231;-77
2023/08/02 08:38:24;;;;;;;7.13;2.27;;;29.50;72.10;;;;;;5083991;28;20225;-77
2023/08/02 08:40:52;;;;;;;7.60;2.20;;;29.60;72.30;;;;;;5061848;28;20239;-78
2023/08/02 08:43:28;;;;;;;6.47;2.40;;;29.60;71.10;;;;;;5050092;28;20205;-77
2023/08/02 08:45:56;;;;;;;2.83;2.17;;;29.60;71.60;;;;;;5053605;28;20228;-78
2023/08/02 08:48:28;;;;;;;5.13;2.20;;;29.70;72.10;;;;;;5054179;28;20273;-77
2023/08/02 08:50:59;;;;;;;5.70;2.30;;;29.80;72.20;;;;;;5088461;28;20206;-77
2023/08/02 08:53:38;;;;;;;7.37;3.10;;;29.90;71.50;;;;;;5080171;28;20208;-78
2023/08/02 08:56:05;;;;;;;8.10;2.40;;;30.00;71.00;;;;;;5066812;28;20314;-78
2023/08/02 08:58:36;;;;;;;6.83;1.90;;;30.20;71.40;;;;;;5047417;28;20271;-78
2023/08/02 09:01:07;;;;;;;3.80;2.27;;;30.30;71.10;;;;;;5068797;28;20196;-77
2023/08/02 09:03:35;;;;;;;6.30;2.70;;;30.40;70.30;;;;;;5079032;28;20262;-77
2023/08/02 09:06:04;;;;;;;7.70;2.50;;;30.50;70.00;;;;;;5070535;28;20194;-77
2023/08/02 09:08:43;;;;;;;5.63;2.47;;;30.50;69.30;;;;;;5053492;28;20202;-77
2023/08/02 09:11:11;;;;;;;5.77;2.70;;;30.50;69.90;;;;;;5078417;28;20259;-77
2023/08/02 09:13:38;;;;;;;6.47;3.23;;;30.50;70.30;;;;;;5081023;28;20223;-78
2023/08/02 09:16:14;;;;;;;6.87;3.33;;;30.50;70.10;;;;;;5074379;28;20262;-77
2023/08/02 09:18:44;;;;;;;9.43;2.80;;;30.50;69.70;;;;;;5052908;28;20214;-78
2023/08/02 09:21:16;;;;;;;3.17;2.57;;;30.50;70.50;;;;;;5055890;28;20225;-77
2023/08/02 09:23:48;;;;;;;9.43;2.70;;;30.50;69.60;;;;;;5057392;28;20270;-78
2023/08/02 09:26:20;;;;;;;8.10;2.90;;;30.50;69.60;;;;;;5075068;28;20209;-77
2023/08/02 09:29:13;;;;;;;5.93;3.43;;;30.50;69.90;;;;;;5084565;28;20213;-77
2023/08/02 09:31:40;;;;;;;5.20;2.97;;;30.60;69.90;;;;;;5069194;28;20209;-77
2023/08/02 09:34:10;;;;;;;6.23;2.60;;;30.80;69.90;;;;;;5067313;28;20201;-77
2023/08/02 09:36:41;;;;;;;8.73;2.97;;;30.80;69.40;;;;;;5057191;28;20204;-78
2023/08/02 09:39:15;;;;;;;7.83;2.37;;;31.00;69.40;;;;;;5050248;28;20221;-78
2023/08/02 09:41:43;;;;;;;7.70;3.20;;;31.20;68.80;;;;;;5065372;28;20282;-77
2023/08/02 09:44:32;;;;;;;8.07;2.70;;;31.40;68.00;;;;;;5050617;28;20629;-77
2023/08/02 09:47:11;;;;;;;4.60;2.80;;;31.40;66.90;;;;;;5085750;28;20185;-78
2023/08/02 09:49:39;;;;;;;6.80;2.90;;;31.40;67.10;;;;;;5082606;28;20193;-77
2023/08/02 09:52:09;;;;;;;9.40;2.73;;;31.40;67.30;;;;;;5070758;28;20226;-77
2023/08/02 09:54:36;;;;;;;8.17;3.10;;;31.40;67.30;;;;;;5066289;28;20288;-78
2023/08/02 09:57:06;;;;;;;5.50;3.07;;;31.40;67.20;;;;;;5069383;28;20247;-78
2023/08/02 09:59:36;;;;;;;4.83;2.57;;;31.40;67.00;;;;;;5069086;28;20732;-77
2023/08/02 10:02:04;;;;;;;7.33;2.43;;;31.60;67.10;;;;;;5060087;28;20228;-78
2023/08/02 10:04:33;;;;;;;10.60;1.93;;;31.60;67.10;;;;;;5061813;28;20198;-78
2023/08/02 10:07:12;;;;;;;6.83;2.50;;;31.70;67.00;;;;;;5070412;28;20198;-78
2023/08/02 10:09:43;;;;;;;5.17;2.80;;;31.70;67.40;;;;;;5072919;28;20217;-78
2023/08/02 10:12:16;;;;;;;5.83;2.63;;;31.80;66.70;;;;;;5076077;28;20205;-78
2023/08/02 10:14:46;;;;;;;5.87;2.70;;;31.90;66.70;;;;;;5063663;28;20243;-78
2023/08/02 10:17:14;;;;;;;3.10;2.40;;;32.00;66.10;;;;;;5069477;28;20632;-78
2023/08/02 10:19:41;;;;;;;7.40;3.30;;;32.10;65.40;;;;;;5053457;28;20621;-79
2023/08/02 10:22:11;;;;;;;8.80;3.53;;;32.10;66.40;;;;;;5086428;28;20208;-78
2023/08/02 10:24:41;;;;;;;5.70;2.77;;;32.10;66.40;;;;;;5071729;28;20209;-78
2023/08/02 10:27:09;;;;;;;7.57;2.87;;;32.20;66.00;;;;;;5073053;28;20216;-79
2023/08/02 10:29:37;;;;;;;5.43;2.87;;;32.30;64.50;;;;;;5071646;28;20274;-78
2023/08/02 10:32:17;;;;;;;10.43;3.03;;;32.30;64.90;;;;;;5080870;28;20213;-79
2023/08/02 10:34:47;;;;;;;7.50;3.07;;;32.30;64.40;;;;;;5061553;28;20211;-78
2023/08/02 10:37:15;;;;;;;5.20;3.23;;;32.30;64.50;;;;;;5071810;28;20233;-78
2023/08/02 10:39:48;;;;;;;4.33;2.67;;;32.30;65.20;;;;;;5084218;28;20229;-78
2023/08/02 10:42:18;;;;;;;13.73;3.60;;;32.40;63.70;;;;;;5063639;28;20537;-78
2023/08/02 10:44:54;;;;;;;6.80;3.07;;;32.40;63.10;;;;;;5072473;28;20232;-78
2023/08/02 10:47:35;;;;;;;6.03;2.53;;;32.50;63.60;;;;;;5051524;28;20208;-78
2023/08/02 10:50:04;;;;;;;10.67;2.87;;;32.60;63.90;;;;;;5062816;28;20204;-77
2023/08/02 10:52:39;;;;;;;7.53;3.20;;;32.60;63.20;;;;;;5067041;28;20205;-78
2023/08/02 10:55:15;;;;;;;6.67;3.17;;;32.70;62.50;;;;;;5091123;28;20233;-78
2023/08/02 10:58:05;;;;;;;4.07;2.57;;;32.80;61.40;;;;;;5046689;28;20216;-78
2023/08/02 11:00:37;;;;;;;7.93;3.23;;;32.90;62.50;;;;;;5049562;28;20348;-78
2023/08/02 11:03:04;;;;;;;4.23;3.33;;;33.00;62.00;;;;;;5053380;28;20699;-78
2023/08/02 11:05:47;;;;;;;7.73;3.20;;;33.00;62.00;;;;;;5081068;28;20198;-78
2023/08/02 11:08:16;;;;;;;4.13;2.57;;;32.80;61.80;;;;;;5070370;28;20285;-80
2023/08/02 11:10:51;;;;;;;6.33;3.00;;;32.70;62.50;;;;;;5080376;28;20202;-78
2023/08/02 11:13:21;;;;;;;8.53;3.03;;;32.70;62.70;;;;;;5069474;28;20216;-77
2023/08/02 11:16:05;;;;;;;6.10;3.23;;;32.90;62.00;;;;;;5047835;28;20205;-78
2023/08/02 11:18:33;;;;;;;4.17;3.27;;;32.90;61.50;;;;;;5068536;28;20331;-78
2023/08/02 11:21:11;;;;;;;4.27;2.90;;;33.00;61.30;;;;;;5081950;28;20186;-78
2023/08/02 11:23:46;;;;;;;5.87;3.00;;;33.20;61.50;;;;;;5070333;28;20198;-78
2023/08/02 11:26:18;;;;;;;4.53;3.23;;;33.40;61.10;;;;;;5060186;28;20204;-78
2023/08/02 11:28:52;;;;;;;7.40;3.10;;;33.60;60.50;;;;;;5071934;28;20200;-78
2023/08/02 11:31:28;;;;;;;6.93;3.50;;;33.80;59.40;;;;;;5056147;28;20683;-78
2023/08/02 11:33:57;;;;;;;5.53;3.10;;;33.90;57.40;;;;;;5058553;28;20212;-78
2023/08/02 11:36:33;;;;;;;4.33;3.27;;;33.90;57.90;;;;;;5070882;28;20675;-78
2023/08/02 11:39:01;;;;;;;5.10;3.17;;;34.00;56.20;;;;;;5066551;28;20282;-78
2023/08/02 11:41:29;;;;;;;3.63;2.90;;;34.00;56.50;;;;;;5067187;28;20705;-80
2023/08/02 11:43:57;;;;;;;8.17;3.90;;;33.90;56.90;;;;;;5077571;28;20205;-78
2023/08/02 11:46:28;;;;;;;4.43;3.20;;;33.90;55.70;;;;;;5049464;28;20293;-78
2023/08/02 11:49:09;;;;;;;6.47;3.13;;;33.90;55.10;;;;;;5073777;28;20197;-78
2023/08/02 11:51:40;;;;;;;6.53;3.40;;;33.90;55.40;;;;;;5057992;28;20213;-79
2023/08/02 11:54:10;;;;;;;6.90;3.60;;;34.00;55.40;;;;;;5069932;28;20271;-79
2023/08/02 11:56:38;;;;;;;5.67;3.30;;;34.10;54.00;;;;;;5074399;28;20444;-78
2023/08/02 11:59:11;;;;;;;5.50;3.60;;;34.20;54.30;;;;;;5091753;28;20268;-80
2023/08/02 12:01:42;;;;;;;5.40;3.40;;;34.40;53.60;;;;;;5078984;28;20605;-79
2023/08/02 12:04:13;;;;;;;8.87;3.73;;;34.40;53.00;;;;;;5054420;28;20202;-78
2023/08/02 12:06:49;;;;;;;4.77;3.03;;;34.50;53.50;;;;;;5069119;28;20202;-79
2023/08/02 12:09:38;;;;;;;8.63;2.93;;;34.70;53.60;;;;;;5074780;28;20625;-78
2023/08/02 12:12:06;;;;;;;5.57;3.63;;;34.90;53.10;;;;;;5060569;28;20205;-78
2023/08/02 12:14:35;;;;;;;8.02;3.35;;;35.00;53.20;;;;;;5074083;28;20197;-78
2023/08/02 12:17:04;;;;;;;8.30;3.17;;;35.00;51.80;;;;;;5084234;28;20536;-79
2023/08/02 12:19:41;;;;;;;6.72;3.40;;;35.10;52.00;;;;;;5050501;28;20227;-78
2023/08/02 12:22:12;;;;;;;4.93;3.10;;;35.10;52.10;;;;;;5065589;28;20206;-79
2023/08/02 12:24:40;;;;;;;3.70;3.05;;;35.10;52.60;;;;;;5087578;28;20225;-78
2023/08/02 12:27:18;;;;;;;6.28;4.03;;;35.10;52.50;;;;;;5076871;28;20201;-78
2023/08/02 12:29:47;;;;;;;5.63;3.00;;;35.10;51.90;;;;;;5078888;28;20208;-78
2023/08/02 12:32:25;;;;;;;11.37;3.87;;;34.90;51.50;;;;;;5076888;28;20240;-79
2023/08/02 12:34:54;;;;;;;5.30;3.20;;;34.80;51.60;;;;;;5085432;28;20229;-77
2023/08/02 12:37:37;;;;;;;7.80;3.53;;;34.60;51.80;;;;;;5063765;28;20513;-77
2023/08/02 12:40:05;;;;;;;9.10;3.23;;;34.50;52.00;;;;;;5085548;28;20225;-78
2023/08/02 12:42:33;;;;;;;7.70;3.33;;;34.40;52.50;;;;;;5067163;28;20198;-78
2023/08/02 12:45:07;;;;;;;6.97;3.83;;;34.40;52.60;;;;;;5084732;28;20519;-78
2023/08/02 12:47:44;;;;;;;6.77;3.53;;;34.50;53.10;;;;;;5091549;28;20205;-78
2023/08/02 12:50:11;;;;;;;6.17;3.40;;;34.50;53.10;;;;;;5086856;28;20673;-78
2023/08/02 12:52:39;;;;;;;7.10;3.30;;;34.40;53.70;;;;;;5086324;28;20228;-79
2023/08/02 12:55:07;;;;;;;4.07;3.40;;;34.40;53.90;;;;;;5070859;28;20320;-77
2023/08/02 12:57:34;;;;;;;4.50;3.03;;;34.50;53.60;;;;;;5074229;28;20220;-77
2023/08/02 13:00:01;;;;;;;6.83;3.33;;;34.50;53.30;;;;;;5080521;28;20218;-78